createdAt,value
2023-09-08T00:01:12.841Z,72.27
2023-09-08T00:03:40.813Z,72.67
2023-09-08T00:06:09.166Z,71.95
2023-09-08T00:08:37.353Z,71.15
2023-09-08T00:11:06.466Z,70.98
2023-09-08T00:13:34.572Z,71.01
2023-09-08T00:16:03.269Z,71.17
2023-09-08T00:18:31.315Z,71.02
2023-09-08T00:20:59.636Z,73.31
2023-09-08T00:23:29.583Z,73.60
2023-09-08T00:26:00.021Z,73.68
2023-09-08T00:28:28.203Z,72.72
2023-09-08T00:30:56.463Z,73.09
2023-09-08T00:33:24.405Z,73.33
2023-09-08T00:35:54.857Z,73.55
2023-09-08T00:38:23.124Z,74.00
2023-09-08T00:40:51.515Z,74.51
2023-09-08T00:43:19.676Z,74.23
2023-09-08T00:45:49.180Z,73.36
2023-09-08T00:48:17.401Z,73.35
2023-09-08T00:50:46.292Z,73.95
2023-09-08T00:53:15.232Z,72.67
2023-09-08T00:55:43.784Z,73.20
2023-09-08T00:58:12.991Z,72.36
2023-09-08T01:00:41.388Z,72.03
2023-09-08T01:03:09.427Z,72.54
2023-09-08T01:05:38.754Z,72.16
2023-09-08T01:08:08.058Z,71.20
2023-09-08T01:10:38.398Z,71.67
2023-09-08T01:13:06.337Z,71.37
2023-09-08T01:15:35.909Z,71.58
2023-09-08T01:18:04.104Z,72.04
2023-09-08T01:20:50.245Z,71.69
2023-09-08T01:23:53.834Z,72.71
2023-09-08T01:26:27.891Z,71.99
2023-09-08T01:28:56.920Z,71.75
2023-09-08T01:31:25.920Z,72.29
2023-09-08T01:33:54.036Z,72.52
2023-09-08T01:36:22.491Z,72.74
2023-09-08T01:38:50.453Z,72.87
2023-09-08T01:41:18.857Z,72.59
2023-09-08T01:43:46.885Z,72.46
2023-09-08T01:46:15.294Z,72.33
2023-09-08T01:48:43.720Z,72.63
2023-09-08T01:51:13.100Z,72.27
2023-09-08T01:53:42.387Z,71.77
2023-09-08T01:56:12.285Z,71.82
2023-09-08T01:58:40.171Z,72.20
2023-09-08T02:01:09.128Z,71.93
2023-09-08T02:03:37.110Z,71.92
2023-09-08T02:06:06.733Z,71.45
2023-09-08T02:08:34.853Z,71.68
2023-09-08T02:11:03.156Z,71.69
2023-09-08T02:13:32.182Z,71.74
2023-09-08T02:16:01.203Z,72.16
2023-09-08T02:18:30.225Z,71.98
2023-09-08T02:20:58.700Z,71.75
2023-09-08T02:23:27.376Z,71.69
2023-09-08T02:25:55.777Z,71.44
2023-09-08T02:28:23.716Z,71.67
2023-09-08T02:30:56.113Z,71.57
2023-09-08T02:33:24.507Z,71.08
2023-09-08T02:35:53.233Z,71.25
2023-09-08T02:38:21.577Z,71.99
2023-09-08T02:40:50.244Z,71.78
2023-09-08T02:43:18.235Z,72.06
2023-09-08T02:45:48.612Z,72.58
2023-09-08T02:48:17.788Z,72.87
2023-09-08T02:50:46.124Z,72.44
2023-09-08T02:53:13.957Z,72.17
2023-09-08T02:55:42.474Z,72.32
2023-09-08T02:58:10.448Z,72.29
2023-09-08T03:00:38.686Z,72.76
2023-09-08T03:03:06.956Z,72.21
2023-09-08T03:05:35.875Z,72.08
2023-09-08T03:08:06.530Z,72.25
2023-09-08T03:10:38.044Z,72.45
2023-09-08T03:13:06.433Z,72.78
2023-09-08T03:15:36.062Z,72.48
2023-09-08T03:18:04.326Z,72.34
2023-09-08T03:20:32.710Z,71.86
2023-09-08T03:23:00.590Z,71.38
2023-09-08T03:25:29.098Z,70.89
2023-09-08T03:27:56.957Z,70.91
2023-09-08T03:30:25.353Z,72.47
2023-09-08T03:32:53.619Z,72.27
2023-09-08T03:35:21.917Z,72.24
2023-09-08T03:37:50.007Z,71.94
2023-09-08T03:40:18.443Z,71.91
2023-09-08T03:42:47.082Z,72.23
2023-09-08T03:45:15.342Z,71.82
2023-09-08T03:47:43.490Z,71.82
2023-09-08T03:50:12.028Z,71.65
2023-09-08T03:52:39.900Z,71.60
2023-09-08T03:55:11.469Z,71.11
2023-09-08T03:57:39.619Z,70.03
2023-09-08T04:00:08.982Z,69.63
2023-09-08T04:02:42.615Z,69.84
2023-09-08T04:05:12.119Z,69.06
2023-09-08T04:07:40.482Z,69.05
2023-09-08T04:10:09.488Z,69.59
2023-09-08T04:12:37.557Z,70.12
2023-09-08T04:15:06.240Z,69.83
2023-09-08T04:17:34.847Z,69.47
2023-09-08T04:20:07.226Z,70.12
2023-09-08T04:22:35.746Z,69.37
2023-09-08T04:25:07.019Z,70.35
2023-09-08T04:27:40.121Z,70.07
2023-09-08T04:30:09.531Z,70.45
2023-09-08T04:32:39.082Z,70.50
2023-09-08T04:35:08.879Z,69.51
2023-09-08T04:37:38.566Z,70.08
2023-09-08T04:40:08.883Z,71.13
2023-09-08T04:42:37.652Z,71.22
2023-09-08T04:45:07.532Z,69.82
2023-09-08T04:47:36.634Z,69.05
2023-09-08T04:50:05.286Z,69.33
2023-09-08T04:52:33.265Z,69.63
2023-09-08T04:55:03.616Z,69.51
2023-09-08T04:57:32.725Z,69.64
2023-09-08T05:00:01.410Z,69.80
2023-09-08T05:02:35.576Z,69.14
2023-09-08T05:05:05.856Z,69.33
2023-09-08T05:07:34.191Z,69.26
2023-09-08T05:10:02.791Z,69.62
2023-09-08T05:12:36.089Z,69.66
2023-09-08T05:15:11.746Z,68.94
2023-09-08T05:17:42.293Z,68.90
2023-09-08T05:20:11.713Z,68.29
2023-09-08T05:22:40.432Z,69.82
2023-09-08T05:25:09.852Z,70.77
2023-09-08T05:27:38.138Z,70.38
2023-09-08T05:30:10.843Z,70.06
2023-09-08T05:32:40.139Z,70.42
2023-09-08T05:35:08.809Z,70.30
2023-09-08T05:37:36.840Z,69.92
2023-09-08T05:40:06.519Z,69.21
2023-09-08T05:42:34.667Z,69.71
2023-09-08T05:45:02.923Z,68.49
2023-09-08T05:47:32.832Z,68.49
2023-09-08T05:50:01.191Z,68.61
2023-09-08T05:52:34.489Z,68.29
2023-09-08T05:55:04.260Z,68.00
2023-09-08T05:57:32.951Z,68.04
2023-09-08T06:00:01.318Z,66.85
2023-09-08T06:02:32.873Z,66.69
2023-09-08T06:05:01.505Z,66.59
2023-09-08T06:07:31.526Z,66.36
2023-09-08T06:09:59.876Z,65.14
2023-09-08T06:12:28.047Z,64.58
2023-09-08T06:14:56.621Z,64.28
2023-09-08T06:17:24.680Z,64.14
2023-09-08T06:19:53.640Z,66.32
2023-09-08T06:22:21.830Z,65.68
2023-09-08T06:24:50.972Z,65.58
2023-09-08T06:27:19.049Z,65.54
2023-09-08T06:29:47.449Z,65.38
2023-09-08T06:32:16.628Z,65.30
2023-09-08T06:34:48.176Z,64.47
2023-09-08T06:37:16.423Z,63.46
2023-09-08T06:39:45.078Z,63.58
2023-09-08T06:42:12.986Z,63.67
2023-09-08T06:44:49.706Z,63.67
2023-09-08T06:47:18.120Z,63.47
2023-09-08T06:49:46.696Z,63.48
2023-09-08T06:52:14.795Z,63.45
2023-09-08T06:54:43.606Z,63.41
2023-09-08T06:57:12.518Z,63.11
2023-09-08T06:59:41.077Z,62.35
2023-09-08T07:02:09.521Z,62.87
2023-09-08T07:04:38.080Z,60.92
2023-09-08T07:07:08.620Z,61.71
2023-09-08T07:09:39.382Z,61.56
2023-09-08T07:12:10.067Z,61.55
2023-09-08T07:14:39.787Z,61.20
2023-09-08T07:17:07.765Z,60.99
2023-09-08T07:19:36.415Z,61.10
2023-09-08T07:22:04.584Z,61.18
2023-09-08T07:24:33.178Z,60.50
2023-09-08T07:27:02.134Z,60.63
2023-09-08T07:29:31.119Z,58.89
2023-09-08T07:31:59.741Z,59.59
2023-09-08T07:34:28.616Z,60.18
2023-09-08T07:36:56.694Z,60.67
2023-09-08T07:39:25.197Z,60.87
2023-09-08T07:41:54.779Z,61.45
2023-09-08T07:44:23.533Z,61.34
2023-09-08T07:46:52.857Z,61.09
2023-09-08T07:49:21.553Z,60.72
2023-09-08T07:51:49.645Z,61.03
2023-09-08T07:54:20.511Z,61.19
2023-09-08T07:56:48.974Z,61.13
2023-09-08T07:59:17.757Z,60.85
2023-09-08T08:01:45.741Z,60.93
2023-09-08T08:04:14.160Z,60.99
2023-09-08T08:06:42.359Z,61.00
2023-09-08T08:09:11.735Z,60.16
2023-09-08T08:11:39.837Z,59.98
2023-09-08T08:14:08.243Z,59.64
2023-09-08T08:16:37.142Z,59.25
2023-09-08T08:19:05.606Z,60.08
2023-09-08T08:21:33.667Z,60.24
2023-09-08T08:24:02.310Z,59.56
2023-09-08T08:26:34.213Z,59.59
2023-09-08T08:29:02.945Z,59.32
2023-09-08T08:31:34.590Z,58.73
2023-09-08T08:34:03.072Z,59.26
2023-09-08T08:36:31.192Z,59.32
2023-09-08T08:38:59.709Z,59.44
2023-09-08T08:41:28.252Z,59.59
2023-09-08T08:43:57.534Z,59.74
2023-09-08T08:46:27.645Z,59.39
2023-09-08T08:48:56.240Z,59.09
2023-09-08T08:51:24.976Z,58.45
2023-09-08T08:53:53.491Z,58.99
2023-09-08T08:56:21.924Z,59.43
2023-09-08T08:58:51.932Z,59.45
2023-09-08T09:01:21.549Z,59.45
2023-09-08T09:03:51.586Z,59.13
2023-09-08T09:06:20.526Z,58.02
2023-09-08T09:08:48.763Z,59.56
2023-09-08T09:11:17.429Z,58.76
2023-09-08T09:13:49.009Z,59.63
2023-09-08T09:16:17.132Z,58.37
2023-09-08T09:19:01.154Z,59.30
2023-09-08T09:21:56.580Z,58.66
2023-09-08T09:24:38.495Z,59.44
2023-09-08T09:27:09.609Z,58.86
2023-09-08T09:29:48.786Z,58.33
2023-09-08T09:32:18.159Z,57.79
2023-09-08T09:34:51.566Z,57.00
2023-09-08T09:37:20.503Z,56.84
2023-09-08T09:39:55.098Z,56.56
2023-09-08T09:42:23.359Z,55.77
2023-09-08T09:44:53.502Z,55.81
2023-09-08T09:47:22.714Z,56.01
2023-09-08T09:49:51.233Z,56.33
2023-09-08T09:52:24.511Z,56.46
2023-09-08T09:54:58.118Z,56.38
2023-09-08T09:57:26.971Z,56.56
2023-09-08T09:59:56.337Z,55.79
2023-09-08T10:02:24.812Z,55.84
2023-09-08T10:04:55.378Z,55.15
2023-09-08T10:07:24.543Z,55.00
2023-09-08T10:09:53.691Z,54.64
2023-09-08T10:12:22.087Z,54.26
2023-09-08T10:14:54.973Z,54.32
2023-09-08T10:17:31.518Z,53.48
2023-09-08T10:20:03.019Z,54.32
2023-09-08T10:22:34.176Z,54.28
2023-09-08T10:25:07.270Z,55.00
2023-09-08T10:27:38.458Z,55.15
2023-09-08T10:30:09.060Z,55.50
2023-09-08T10:32:38.400Z,55.61
2023-09-08T10:35:08.172Z,55.75
2023-09-08T10:37:36.263Z,55.85
2023-09-08T10:40:24.023Z,55.51
2023-09-08T10:43:08.151Z,55.18
2023-09-08T10:45:37.347Z,56.15
2023-09-08T10:48:05.412Z,56.62
2023-09-08T10:50:40.335Z,56.33
2023-09-08T10:53:14.285Z,56.73
2023-09-08T10:56:10.716Z,57.10
2023-09-08T10:58:44.645Z,57.77
2023-09-08T11:01:24.051Z,58.79
2023-09-08T11:03:53.178Z,60.11
2023-09-08T11:06:25.601Z,61.62
2023-09-08T11:08:57.725Z,62.25
2023-09-08T11:11:28.683Z,61.42
2023-09-08T11:13:56.713Z,62.12
2023-09-08T11:16:30.939Z,63.43
2023-09-08T11:18:59.583Z,63.15
2023-09-08T11:21:28.376Z,62.83
2023-09-08T11:23:57.272Z,66.33
2023-09-08T11:26:25.709Z,67.16
2023-09-08T11:28:54.976Z,67.37
2023-09-08T11:31:23.539Z,67.97
2023-09-08T11:33:56.603Z,67.18
2023-09-08T11:36:24.977Z,66.55
2023-09-08T11:38:55.276Z,66.59
2023-09-08T11:41:25.305Z,66.05
2023-09-08T11:43:53.931Z,66.17
2023-09-08T11:46:23.062Z,67.73
2023-09-08T11:48:51.610Z,68.73
2023-09-08T11:51:24.982Z,68.88
2023-09-08T11:53:53.534Z,68.90
2023-09-08T11:56:21.813Z,67.45
2023-09-08T11:58:50.196Z,66.75
2023-09-08T12:01:19.462Z,66.45
2023-09-08T12:03:57.446Z,65.67
2023-09-08T12:06:30.009Z,64.91
2023-09-08T12:09:04.164Z,65.32
2023-09-08T12:11:36.599Z,65.19
2023-09-08T12:14:10.977Z,62.06
2023-09-08T12:16:40.659Z,63.85
2023-09-08T12:19:35.039Z,63.58
2023-09-08T12:22:05.249Z,63.41
2023-09-08T12:24:58.706Z,64.08
2023-09-08T12:27:28.071Z,64.22
2023-09-08T12:30:03.285Z,65.73
2023-09-08T12:32:37.888Z,64.73
2023-09-08T12:35:06.410Z,63.80
2023-09-08T12:37:35.488Z,65.22
2023-09-08T12:40:03.729Z,65.02
2023-09-08T12:42:37.585Z,65.38
2023-09-08T12:45:10.955Z,65.16
2023-09-08T12:47:40.550Z,65.39
2023-09-08T12:50:10.071Z,62.58
2023-09-08T12:52:38.489Z,62.35
2023-09-08T12:55:07.152Z,62.64
2023-09-08T12:57:37.079Z,62.17
2023-09-08T13:00:06.091Z,60.52
2023-09-08T13:02:40.686Z,63.04
2023-09-08T13:05:09.523Z,63.36
2023-09-08T13:07:37.850Z,63.53
2023-09-08T13:10:08.713Z,63.83
2023-09-08T13:12:37.247Z,64.39
2023-09-08T13:15:05.831Z,64.37
2023-09-08T13:17:35.521Z,65.07
2023-09-08T13:20:04.704Z,65.11
2023-09-08T13:22:33.145Z,64.42
2023-09-08T13:25:01.236Z,65.10
2023-09-08T13:27:32.268Z,65.46
2023-09-08T13:30:17.136Z,65.49
2023-09-08T13:32:46.458Z,65.78
2023-09-08T13:35:14.757Z,66.83
2023-09-08T13:37:43.842Z,66.33
2023-09-08T13:40:12.227Z,67.35
2023-09-08T13:42:40.588Z,66.45
2023-09-08T13:45:09.273Z,66.74
2023-09-08T13:47:40.135Z,66.18
2023-09-08T13:50:11.103Z,65.74
2023-09-08T13:52:43.610Z,65.01
2023-09-08T13:55:34.364Z,65.18
2023-09-08T13:58:02.132Z,65.69
2023-09-08T14:00:31.909Z,65.22
2023-09-08T14:03:06.665Z,65.60
2023-09-08T14:05:37.319Z,65.64
2023-09-08T14:08:16.493Z,65.67
2023-09-08T14:13:17.546Z,66.09
2023-09-08T14:15:45.937Z,66.18
2023-09-08T14:18:15.568Z,67.04
2023-09-08T14:20:44.314Z,67.96
2023-09-08T14:23:12.681Z,68.63
2023-09-08T14:25:40.674Z,69.61
2023-09-08T14:28:11.405Z,71.07
2023-09-08T14:30:39.545Z,71.97
2023-09-08T14:33:08.998Z,72.47
2023-09-08T14:35:37.113Z,72.55
2023-09-08T14:38:07.363Z,72.13
2023-09-08T14:40:35.376Z,71.96
2023-09-08T14:43:04.384Z,71.86
2023-09-08T14:45:32.462Z,72.01
2023-09-08T14:48:01.920Z,71.95
2023-09-08T14:50:30.295Z,72.45
2023-09-08T14:52:58.606Z,72.57
2023-09-08T14:55:26.901Z,72.50
2023-09-08T14:57:58.285Z,72.91
2023-09-08T15:00:28.423Z,72.55
2023-09-08T15:02:57.026Z,72.46
2023-09-08T15:05:24.895Z,72.53
2023-09-08T15:07:53.242Z,72.08
2023-09-08T15:10:21.423Z,71.96
2023-09-08T15:12:49.705Z,72.17
2023-09-08T15:15:19.865Z,72.50
2023-09-08T15:17:49.066Z,72.59
2023-09-08T15:20:16.983Z,72.54
2023-09-08T15:22:45.404Z,72.30
2023-09-08T15:25:14.418Z,72.58
2023-09-08T15:27:45.284Z,72.66
2023-09-08T15:30:15.233Z,72.87
2023-09-08T15:32:43.793Z,72.89
2023-09-08T15:35:11.734Z,72.08
2023-09-08T15:37:42.527Z,72.65
2023-09-08T15:40:15.642Z,72.65
2023-09-08T15:42:44.813Z,72.82
2023-09-08T15:45:13.000Z,73.07
2023-09-08T15:47:41.282Z,73.19
2023-09-08T15:50:10.376Z,73.06
2023-09-08T15:52:38.616Z,73.77
2023-09-08T15:55:06.990Z,73.88
2023-09-08T15:57:35.416Z,73.69
2023-09-08T16:00:04.428Z,74.60
2023-09-08T16:02:37.189Z,74.40
2023-09-08T16:05:06.098Z,74.72
2023-09-08T16:07:34.454Z,74.29
2023-09-08T16:10:02.461Z,74.46
2023-09-08T16:12:33.048Z,74.70
2023-09-08T16:15:00.964Z,74.51
2023-09-08T16:17:30.224Z,74.14
2023-09-08T16:19:58.177Z,74.57
2023-09-08T16:22:26.997Z,74.63
2023-09-08T16:24:55.562Z,75.44
2023-09-08T16:27:23.514Z,75.82
2023-09-08T16:29:52.019Z,75.24
2023-09-08T16:32:21.479Z,76.18
2023-09-08T16:34:50.985Z,76.70
2023-09-08T16:37:19.018Z,76.61
2023-09-08T16:39:47.441Z,76.94
2023-09-08T16:42:15.375Z,77.34
2023-09-08T16:44:44.861Z,77.41
2023-09-08T16:47:12.995Z,76.52
2023-09-08T16:49:42.266Z,77.54
2023-09-08T16:52:10.182Z,78.57
2023-09-08T16:54:39.447Z,77.88
2023-09-08T16:57:07.478Z,77.90
2023-09-08T16:59:36.174Z,77.56
2023-09-08T17:02:04.458Z,77.60
2023-09-08T17:04:37.218Z,77.53
2023-09-08T17:07:10.735Z,77.26
2023-09-08T17:09:39.364Z,76.35
2023-09-08T17:12:08.571Z,77.29
2023-09-08T17:14:51.310Z,77.27
2023-09-08T17:17:19.250Z,77.90
2023-09-08T17:19:47.577Z,78.20
2023-09-08T17:22:15.964Z,78.26
2023-09-08T17:28:20.171Z,78.63
2023-09-08T17:31:41.165Z,79.06
2023-09-08T17:34:20.121Z,78.99
2023-09-08T17:36:53.106Z,79.04
2023-09-08T17:39:21.262Z,78.38
2023-09-08T17:41:50.022Z,78.17
2023-09-08T17:44:18.029Z,78.39
2023-09-08T17:46:48.006Z,77.81
2023-09-08T17:49:16.210Z,79.05
2023-09-08T17:51:45.010Z,79.15
2023-09-08T17:54:13.350Z,79.03
2023-09-08T17:56:41.758Z,78.87
2023-09-08T17:59:10.570Z,78.87
2023-09-08T18:01:53.365Z,78.15
2023-09-08T18:04:23.326Z,78.21
2023-09-08T18:06:51.795Z,78.60
2023-09-08T18:09:20.582Z,79.64
2023-09-08T18:11:49.421Z,79.76
2023-09-08T18:14:18.041Z,79.58
2023-09-08T18:16:46.260Z,79.44
2023-09-08T18:19:14.916Z,79.36
2023-09-08T18:21:44.408Z,79.76
2023-09-08T18:24:12.723Z,79.32
2023-09-08T18:26:40.615Z,79.51
2023-09-08T18:29:09.297Z,79.14
2023-09-08T18:31:37.266Z,79.82
2023-09-08T18:34:06.090Z,78.85
2023-09-08T18:36:34.261Z,79.12
2023-09-08T18:39:02.593Z,77.95
2023-09-08T18:41:30.590Z,77.93
2023-09-08T18:44:00.927Z,78.32
2023-09-08T18:46:29.059Z,78.05
2023-09-08T18:48:57.552Z,78.82
2023-09-08T18:51:25.639Z,78.27
2023-09-08T18:53:56.074Z,78.99
2023-09-08T18:56:24.324Z,78.64
2023-09-08T18:58:52.580Z,78.97
2023-09-08T19:01:20.663Z,79.17
2023-09-08T19:03:49.387Z,79.12
2023-09-08T19:06:19.612Z,78.06
2023-09-08T19:08:47.984Z,77.02
2023-09-08T19:11:17.309Z,75.05
2023-09-08T19:14:24.307Z,76.25
2023-09-08T19:16:54.983Z,74.42
2023-09-08T19:19:23.423Z,74.55
2023-09-08T19:21:51.905Z,74.58
2023-09-08T19:24:21.157Z,74.55
2023-09-08T19:26:50.240Z,74.76
2023-09-08T19:29:22.904Z,75.24
2023-09-08T19:31:50.972Z,74.48
2023-09-08T19:34:19.998Z,74.66
2023-09-08T19:36:47.909Z,74.02
2023-09-08T19:39:16.299Z,74.12
2023-09-08T19:41:44.191Z,74.14
2023-09-08T19:44:12.494Z,73.38
2023-09-08T19:46:40.606Z,73.89
2023-09-08T19:49:09.327Z,74.51
2023-09-08T19:51:37.437Z,74.71
2023-09-08T19:54:05.865Z,74.14
2023-09-08T19:56:33.710Z,74.08
2023-09-08T19:59:04.879Z,75.92
2023-09-08T20:01:32.917Z,75.58
2023-09-08T20:04:01.670Z,75.22
2023-09-08T20:06:29.818Z,75.35
2023-09-08T20:08:58.209Z,75.33
2023-09-08T20:11:26.138Z,74.99
2023-09-08T20:13:55.428Z,75.54
2023-09-08T20:16:23.517Z,76.62
2023-09-08T20:18:52.023Z,76.71
2023-09-08T20:21:19.949Z,77.06
2023-09-08T20:23:48.356Z,77.57
2023-09-08T20:26:16.308Z,78.11
2023-09-08T20:28:47.389Z,77.95
2023-09-08T20:31:18.926Z,78.12
2023-09-08T20:33:48.119Z,78.52
2023-09-08T20:36:16.217Z,78.58
2023-09-08T20:38:44.960Z,78.74
2023-09-08T20:41:13.833Z,78.83
2023-09-08T20:43:42.455Z,78.62
2023-09-08T20:46:10.439Z,78.11
2023-09-08T20:48:44.914Z,78.02
2023-09-08T20:51:14.499Z,78.06
2023-09-08T20:53:43.641Z,78.03
2023-09-08T20:56:12.199Z,77.80
2023-09-08T20:58:42.369Z,77.83
2023-09-08T21:01:11.206Z,77.24
2023-09-08T21:03:40.629Z,77.28
2023-09-08T21:06:11.155Z,77.66
2023-09-08T21:08:40.063Z,77.84
2023-09-08T21:11:08.970Z,78.01
2023-09-08T21:13:37.413Z,77.67
2023-09-08T21:16:05.873Z,77.84
2023-09-08T21:18:34.404Z,76.55
2023-09-08T21:21:02.366Z,76.91
2023-09-08T21:23:31.540Z,76.63
2023-09-08T21:25:59.735Z,75.78
2023-09-08T21:28:28.080Z,75.75
2023-09-08T21:31:09.032Z,75.91
2023-09-08T21:33:39.438Z,76.12
2023-09-08T21:36:08.953Z,76.94
2023-09-08T21:38:37.734Z,77.26
2023-09-08T21:41:11.015Z,77.50
2023-09-08T21:43:39.806Z,77.37
2023-09-08T21:46:09.992Z,76.35
2023-09-08T21:48:40.134Z,75.80
2023-09-08T21:51:10.200Z,75.64
2023-09-08T21:53:38.935Z,75.74
2023-09-08T21:56:07.391Z,75.16
2023-09-08T21:58:36.173Z,75.00
2023-09-08T22:01:04.728Z,74.93
2023-09-08T22:03:33.190Z,74.73
2023-09-08T22:06:01.495Z,75.63
2023-09-08T22:08:30.072Z,77.41
2023-09-08T22:11:06.353Z,77.29
2023-09-08T22:13:37.350Z,77.04
2023-09-08T22:16:06.235Z,77.34
2023-09-08T22:18:34.910Z,77.86
2023-09-08T22:21:06.018Z,77.66
2023-09-08T22:23:35.077Z,77.72
2023-09-08T22:26:04.305Z,77.47
2023-09-08T22:28:32.500Z,76.78
2023-09-08T22:31:00.552Z,75.13
2023-09-08T22:33:31.527Z,74.60
2023-09-08T22:35:59.919Z,74.60
2023-09-08T22:38:28.687Z,73.69
2023-09-08T22:40:56.625Z,73.28
2023-09-08T22:43:25.965Z,73.07
2023-09-08T22:45:54.928Z,73.37
2023-09-08T22:48:24.090Z,73.42
2023-09-08T22:50:52.216Z,74.16
2023-09-08T22:53:21.086Z,74.38
2023-09-08T22:55:49.822Z,74.97
2023-09-08T22:58:18.202Z,74.74
2023-09-08T23:00:46.109Z,74.55
2023-09-08T23:03:14.543Z,73.99
2023-09-08T23:05:45.233Z,74.18
2023-09-08T23:08:13.653Z,73.64
2023-09-08T23:10:41.781Z,72.73
2023-09-08T23:13:10.137Z,73.04
2023-09-08T23:15:38.312Z,72.19
2023-09-08T23:18:10.977Z,73.03
2023-09-08T23:20:42.423Z,72.99
2023-09-08T23:23:10.961Z,72.53
2023-09-08T23:25:39.024Z,72.23
2023-09-08T23:28:09.800Z,72.13
2023-09-08T23:30:38.115Z,72.54
2023-09-08T23:33:07.853Z,73.32
2023-09-08T23:35:35.868Z,72.86
2023-09-08T23:38:04.532Z,72.67
2023-09-08T23:40:32.992Z,72.66
2023-09-08T23:43:01.364Z,72.47
2023-09-08T23:45:29.733Z,72.05
2023-09-08T23:47:57.981Z,71.92
2023-09-08T23:50:50.510Z,72.45
2023-09-08T23:53:20.060Z,72.62
2023-09-08T23:55:50.111Z,72.49
2023-09-08T23:58:22.134Z,72.18
